ADDS METAR Data INFO
IDs: Format: Raw Decoded Include TAF

Data at: 2113 UTC 22 Oct 2017

KEWR 222051Z 14008KT 10SM FEW100 BKN200 BKN250 22/12 A3035 RMK AO2 SLP276 T02220122 56007
KEWR 221951Z VRB06KT 10SM FEW100 SCT180 BKN250 23/10 A3035 RMK AO2 SLP277 T02280100
KEWR 221851Z 13008KT 10SM FEW090 SCT180 BKN250 23/08 A3036 RMK AO2 SLP279 T02330078
KEWR 221751Z 14008KT 10SM SCT200 BKN260 23/08 A3037 RMK AO2 SLP283 T02330083 10239 20122 58012
KEWR 221651Z 16006KT 10SM SCT200 BKN260 24/07 A3039 RMK AO2 SLP289 T02390067
KEWR 221551Z 10004KT 10SM FEW200 BKN250 22/08 A3040 RMK AO2 SLP294 T02220083
KEWR 221451Z 10004KT 10SM FEW200 BKN250 20/07 A3040 RMK AO2 SLP295 T02000067 50001
KEWR 221351Z 00000KT 10SM FEW200 BKN250 17/08 A3041 RMK AO2 SLP298 T01670083
KEWR 221251Z 00000KT 10SM FEW190 BKN250 14/09 A3042 RMK AO2 SLP300 T01390094
KEWR 221151Z 00000KT 10SM FEW150 BKN250 12/09 A3040 RMK AO2 SLP294 T01220094 10144 20100 53013
KEWR 221051Z 02003KT 10SM SCT250 11/08 A3038 RMK AO2 SLP288 T01110083
KEWR 220951Z 01004KT 10SM FEW250 12/08 A3037 RMK AO2 SLP285 T01170078
KEWR 220851Z 00000KT 10SM FEW250 12/07 A3036 RMK AO2 SLP281 T01170072 53002
KEWR 220751Z 20003KT 10SM FEW250 13/08 A3035 RMK AO2 SLP278 T01330083
KEWR 220651Z 23004KT 10SM FEW280 14/08 A3035 RMK AO2 SLP276 T01390078
KEWR 220551Z 20004KT 10SM SCT280 14/08 A3036 RMK AO2 SLP279 T01390083 10194 20139 50001
KEWR 220451Z 00000KT 10SM SCT280 14/08 A3036 RMK AO2 SLP279 T01390078 402720111
KEWR 220351Z 22005KT 10SM SCT280 14/08 A3036 RMK AO2 SLP279 T01390078
KEWR 220251Z 21005KT 10SM BKN280 16/08 A3036 RMK AO2 SLP278 T01560078 51006
KEWR 220151Z 22004KT 10SM BKN280 17/08 A3036 RMK AO2 SLP278 T01670078
KEWR 220051Z 20005KT 10SM BKN280 18/07 A3035 RMK AO2 SLP276 T01780072
KEWR 212351Z 18005KT 10SM BKN280 19/08 A3034 RMK AO2 SLP272 T01940078 10272 20194 51012
KEWR 212251Z 17004KT 10SM BKN280 21/07 A3033 RMK AO2 SLP268 T02110067
KEWR 212151Z 18004KT 10SM BKN280 23/06 A3032 RMK AO2 SLP265 T02280061
KEWR 212051Z 23007KT 10SM BKN300 25/01 A3030 RMK AO2 SLP260 T02500011 55000
KEWR 211951Z 22006KT 10SM BKN300 26/00 A3029 RMK AO2 SLP257 T02610000
KEWR 211851Z 20004KT 10SM BKN300 27/01 A3029 RMK AO2 SLP257 T02670006
KEWR 211751Z 24006KT 10SM BKN300 27/00 A3030 RMK AO2 SLP260 T02670000 10267 20128 58015
KEWR 211651Z VRB03KT 10SM BKN300 26/02 A3032 RMK AO2 SLP266 T02560017
KEWR 211551Z 21004KT 10SM SCT300 24/02 A3034 RMK AO2 SLP272 T02390017
KEWR 211451Z 00000KT 10SM FEW300 21/03 A3034 RMK AO2 SLP274 T02110033 51012
KEWR 211351Z 00000KT 10SM SCT300 18/04 A3034 RMK AO2 SLP275 T01780044
KEWR 211251Z 00000KT 10SM SCT300 16/04 A3033 RMK AO2 SLP271 T01560044
KEWR 211151Z 00000KT 10SM SCT280 13/04 A3031 RMK AO2 SLP262 T01280044 10139 20111 53015
KEWR 211051Z 02003KT 10SM SCT250 12/04 A3028 RMK AO2 SLP254 T01170044
KEWR 210951Z 03004KT 10SM FEW250 12/05 A3027 RMK AO2 SLP251 T01220050